« 令和元年度築城基地航空祭【B.I.編】 築城飛行場 2019/12/8 sun | トップページ | 雨那覇 那覇空港 2019/12/6 fri »

2019/12/10

嵐まえ 福岡空港 2019/12/6 fri

那覇への道のりは、まず鉄路で大阪へ

20191206_0shinoosaka_00ja308j

JAL2000 RJCC-RJOO JA308J B737-846

乗り換えで空を仰ぐと、伊丹アプローチ

20191206_0shinoosaka_01k7878504

今回初めて乗る「さくら」551号 博多までGo

RJFF 060400Z 35009KT 330V040 9999 -SHRA FEW025 SCT030 BKN040 08/04 Q1029 NOSIG RMK 1CU025 3CU030 5CU040 A3040

お腹の減り具合と天秤にかけたら、送迎デッキへ。小雨ながら小一時間、オブザベーション。空ビルはまだ工事が続いていて、送迎デッキは半分のみ開放。

20191206_rjff_02ja11rk

JTA57 RJFF-ROAH JA11RK B737-8Q3

20191206_rjff_03ja224j

JAL3596 RJOM-RJFF JA224J ERJ-170STD

20191206_rjff_04ja58an

どこでも安全第一に、しっかり確認

20191206_rjff_05hl8063

JJA1401 RJFF-RKSI HL8003 B737-8AS

20191206_rjff_06ja248j

JAL3530 RJSS-RJFF JA248J ERJ-175STD

RJFF 060430Z 36005KT 320V030 9999 -SHRA FEW025 SCT030 BKN040 07/04 Q1029 NOSIG RMK 1CU025 3CU030 5CU040 A3040

20191206_rjff_07ja04jc

JAC3671 RJFF-RJFC JA04JC ATR42-600

20191206_rjff_08ja58an

ANA1207 RJFF-ROAH JA58AN B737-881

20191206_rjff_09ja02jc

JAC3672 RJFC-RJFF JA02JC ATR42-600

20191206_rjff_10ja25mc

となりあっていたスタフラとオレンジが同時にプッシュバック

20191206_rjff_11ja737t

SKY009 RJTT-RJFF JA737T B737-8Q8

20191206_rjff_12ja714a

ANA251 RJTT-RJFF JA714A B777-281

20191206_rjff_13ja010d

JAL314 RJFF-RJTT JA010D B777-289

20191206_rjff_14ja858a

ORC68 RJFM-RJFF JA858A DHC8-402Q

20191206_rjff_15ja221j

JAL3631 RJFF-RJFM JA221J ERJ-170STD

20191206_rjff_16ja13fj

FDA305 RJNA-RJFF JA13FJ ERJ-170STD

20191206_rjff_17ja17jj

JJP585 RJGG-RJFF JA17JJ A320-232

20191206_rjff_18ja13fj

お鼻に大きな絆創膏。冬は怖いよね雷神さん。

20191206_rjff_19ja13jj

JJP508 RJFF-RJTT JA13JJ A320-232

20191206_rjff_20rpc9929

PAL426 RPLL-RJFF RP-C9929 A321-231

20191206_rjff_21ja25mc

SFJ46 RJFF-RJTT JA25MC A320-214

20191206_rjff_22hl8013

JNA223 RJFF-RKSI HL8013 B737-8SH

20191206_rjff_23ja307k

ANA2144 RJFF-RJAA JA307K B737-54K

20191206_rjff_24ja307k

ドルフィン機長も退役間近 引退記念ステッカーが泣けます

RJFF 060500Z 36006KT 310V030 9999 -SHRA FEW025 SCT030 BKN040 08/05 Q1028 NOSIG RMK 1CU025 3CU030 5CU040 A3038

ワラワラと女子人口が上がってきたところで、デッキからおさらば。ラジオもFRも見てなかったのですが、この後「嵐ジェット」が飛来したと。

20191206_rjff_25ja73np

SKY507 RJFF-ROAH JA73NP B737-8HX

小生は、これに搭乗して那覇へ

|

« 令和元年度築城基地航空祭【B.I.編】 築城飛行場 2019/12/8 sun | トップページ | 雨那覇 那覇空港 2019/12/6 fri »

福岡空港」カテゴリの記事

コメント

コメントを書く



(ウェブ上には掲載しません)


コメントは記事投稿者が公開するまで表示されません。



« 令和元年度築城基地航空祭【B.I.編】 築城飛行場 2019/12/8 sun | トップページ | 雨那覇 那覇空港 2019/12/6 fri »